Terminal Aerodrome Forecast
Issued by NWS Greer, SC

Home | Current Version | Previous Version | Text Only | Print | Product List | Glossary On
Versions: 1 2 3 4 5 6 7 8 9 10 11 12 13 14 15 16 17 18 19 20 21 22 23 24 25 26 27 28 29 30 31 32 33 34 35 36 37 38
000
FTUS42 KGSP 231100
TAFAVL
TAF
KAVL 231123Z 2312/2412 35006KT P6SM FEW050 BKN150
     FM231600 35007KT P6SM BKN050
     FM240100 VRB03KT P6SM SCT050 BKN150
     FM240900 00000KT 4SM BR SCT010 BKN120=

USA.gov is the U.S. government's official web portal to all federal, state and local government web resources and services.